createdAt,value
2023-01-31T00:04:49.415Z,-2.30
2023-01-31T00:09:51.582Z,-2.14
2023-01-31T00:14:53.715Z,-2.18
2023-01-31T00:19:55.828Z,-2.07
2023-01-31T00:24:58.078Z,-2.33
2023-01-31T00:30:00.346Z,-2.20
2023-01-31T00:35:02.553Z,-2.21
2023-01-31T00:40:07.150Z,-2.20
2023-01-31T00:45:09.779Z,-2.33
2023-01-31T00:50:15.151Z,-2.08
2023-01-31T00:55:18.402Z,-2.20
2023-01-31T01:00:20.982Z,-2.22
2023-01-31T01:05:23.545Z,-2.08
2023-01-31T01:10:26.149Z,-2.20
2023-01-31T01:15:28.437Z,-2.13
2023-01-31T01:20:31.185Z,-2.13
2023-01-31T01:25:42.975Z,-2.26
2023-01-31T01:30:45.083Z,-2.06
2023-01-31T01:35:47.240Z,-2.21
2023-01-31T01:40:49.396Z,-2.17
2023-01-31T01:45:53.223Z,-2.10
2023-01-31T01:50:55.467Z,-2.05
2023-01-31T01:56:14.492Z,-2.04
2023-01-31T02:01:17.206Z,-2.00
2023-01-31T02:06:22.308Z,-2.28
2023-01-31T02:11:27.388Z,-2.19
2023-01-31T02:16:30.312Z,-2.03
2023-01-31T02:21:54.587Z,-2.02
2023-01-31T02:27:09.289Z,-1.98
2023-01-31T02:32:16.257Z,-2.00
2023-01-31T02:37:38.328Z,-2.08
2023-01-31T02:42:54.652Z,-1.97
2023-01-31T02:48:27.456Z,-2.01
2023-01-31T02:53:51.923Z,-2.05
2023-01-31T02:59:13.564Z,-1.99
2023-01-31T03:04:15.832Z,-2.00
2023-01-31T03:09:28.555Z,-2.07
2023-01-31T03:14:36.424Z,-1.97
2023-01-31T03:19:51.929Z,-2.07
2023-01-31T03:24:54.573Z,-2.10
2023-01-31T03:30:02.050Z,-1.95
2023-01-31T03:35:06.972Z,-1.94
2023-01-31T03:40:32.548Z,-2.05
2023-01-31T03:45:55.257Z,-1.90
2023-01-31T03:51:00.387Z,-2.08
2023-01-31T03:56:25.539Z,-2.02
2023-01-31T04:01:29.318Z,-2.06
2023-01-31T04:06:32.225Z,-2.11
2023-01-31T04:11:43.797Z,-2.00
2023-01-31T04:16:46.192Z,-1.99
2023-01-31T04:21:48.451Z,-2.30
2023-01-31T04:26:50.694Z,-2.11
2023-01-31T04:31:53.082Z,-2.02
2023-01-31T04:36:55.339Z,-2.11
2023-01-31T04:41:57.553Z,-2.04
2023-01-31T04:47:00.090Z,-1.93
2023-01-31T04:52:02.535Z,-2.04
2023-01-31T04:57:04.995Z,-1.97
2023-01-31T05:02:16.892Z,-2.16
2023-01-31T05:07:25.308Z,-2.03
2023-01-31T05:12:28.715Z,-2.08
2023-01-31T05:17:31.435Z,-2.06
2023-01-31T05:22:34.150Z,-1.93
2023-01-31T05:27:36.364Z,-1.92
2023-01-31T05:32:40.337Z,-1.88
2023-01-31T05:37:46.353Z,-1.97
2023-01-31T05:43:00.871Z,-1.83
2023-01-31T05:48:03.523Z,-1.91
2023-01-31T05:53:06.296Z,-1.87
2023-01-31T05:58:11.658Z,-2.05
2023-01-31T06:03:13.857Z,-1.90
2023-01-31T06:08:18.820Z,-1.91
2023-01-31T06:13:23.690Z,-2.00
2023-01-31T06:18:26.730Z,-1.79
2023-01-31T06:23:29.033Z,-1.93
2023-01-31T06:28:31.821Z,-1.97
2023-01-31T06:33:44.662Z,-1.90
2023-01-31T06:38:51.281Z,-1.78
2023-01-31T06:43:55.178Z,-1.76
2023-01-31T06:48:57.614Z,-1.79
2023-01-31T06:53:59.814Z,-1.73
2023-01-31T06:59:02.202Z,-1.89
2023-01-31T07:04:04.510Z,-1.82
2023-01-31T07:09:07.735Z,-1.85
2023-01-31T07:14:10.017Z,-1.68
2023-01-31T07:19:12.170Z,-1.77
2023-01-31T07:24:14.399Z,-1.91
2023-01-31T07:29:16.607Z,-1.82
2023-01-31T07:34:21.491Z,-1.64
2023-01-31T07:39:24.069Z,-1.68
2023-01-31T07:44:26.398Z,-1.62
2023-01-31T07:49:28.598Z,-1.61
2023-01-31T07:54:30.819Z,-1.92
2023-01-31T07:59:36.056Z,-1.75
2023-01-31T08:04:38.507Z,-1.79
2023-01-31T08:09:40.776Z,-1.71
2023-01-31T08:14:50.613Z,-1.62
2023-01-31T08:19:54.887Z,-1.64
2023-01-31T08:24:58.895Z,-1.85
2023-01-31T08:30:01.051Z,-1.47
2023-01-31T08:35:03.610Z,-1.51
2023-01-31T08:40:06.570Z,-1.52
2023-01-31T08:45:09.309Z,-1.55
2023-01-31T08:50:26.808Z,-1.38
2023-01-31T08:55:31.272Z,-1.44
2023-01-31T09:00:34.399Z,-1.41
2023-01-31T09:05:36.824Z,-1.45
2023-01-31T09:10:39.657Z,-1.46
2023-01-31T09:15:41.834Z,-1.56
2023-01-31T09:20:43.902Z,-1.44
2023-01-31T09:25:55.335Z,-1.17
2023-01-31T09:31:03.459Z,-1.15
2023-01-31T09:36:07.530Z,-1.14
2023-01-31T09:41:30.945Z,-1.04
2023-01-31T09:46:38.032Z,-1.04
2023-01-31T09:51:40.658Z,-1.06
2023-01-31T09:56:50.846Z,-1.07
2023-01-31T10:02:17.120Z,-0.98
2023-01-31T10:07:44.489Z,-0.93
2023-01-31T10:12:52.432Z,-0.96
2023-01-31T10:18:02.739Z,-1.07
2023-01-31T10:23:13.699Z,-0.92
2023-01-31T10:28:21.779Z,-0.88
2023-01-31T10:33:30.385Z,-0.88
2023-01-31T10:38:46.067Z,-1.04
2023-01-31T10:43:58.146Z,-1.12
2023-01-31T10:49:00.416Z,-1.11
2023-01-31T10:54:23.638Z,-0.85
2023-01-31T10:59:38.095Z,-1.01
2023-01-31T11:04:46.142Z,-0.79
2023-01-31T11:09:54.647Z,-0.83
2023-01-31T11:15:14.992Z,-0.72
2023-01-31T11:20:32.374Z,-0.70
2023-01-31T11:25:36.206Z,-0.87
2023-01-31T11:30:42.761Z,-0.69
2023-01-31T11:35:52.192Z,-0.79
2023-01-31T11:40:54.433Z,-1.12
2023-01-31T11:46:01.706Z,-0.68
2023-01-31T11:51:04.872Z,-0.68
2023-01-31T11:56:14.070Z,-0.58
2023-01-31T12:01:23.754Z,-0.72
2023-01-31T12:06:37.389Z,-0.43
2023-01-31T12:11:53.155Z,-0.68
2023-01-31T12:16:56.686Z,-0.54
2023-01-31T12:22:40.061Z,-0.53
2023-01-31T12:28:01.912Z,-0.48
2023-01-31T12:33:17.246Z,-0.53
2023-01-31T12:38:28.491Z,-0.52
2023-01-31T12:43:48.882Z,-0.51
2023-01-31T12:49:15.149Z,-0.44
2023-01-31T12:54:30.920Z,-0.49
2023-01-31T12:59:45.455Z,-0.45
2023-01-31T13:04:50.795Z,-0.48
2023-01-31T13:09:54.294Z,-0.55
2023-01-31T13:15:07.927Z,-0.48
2023-01-31T13:20:37.275Z,-0.45
2023-01-31T13:25:43.549Z,-0.54
2023-01-31T13:31:00.148Z,-0.49
2023-01-31T13:36:26.206Z,-0.74
2023-01-31T13:41:40.232Z,-0.61
2023-01-31T13:46:53.385Z,-0.64
2023-01-31T13:52:14.373Z,-0.47
2023-01-31T13:57:45.770Z,-0.56
2023-01-31T14:03:08.433Z,-0.50
2023-01-31T14:08:29.598Z,-0.45
2023-01-31T14:13:31.787Z,-0.50
2023-01-31T14:18:39.349Z,-0.54
2023-01-31T14:23:47.484Z,-0.84
2023-01-31T14:28:52.849Z,-0.50
2023-01-31T14:33:57.680Z,-0.49
2023-01-31T14:39:12.306Z,-0.45
2023-01-31T14:44:30.650Z,-0.46
2023-01-31T14:49:40.195Z,-0.47
2023-01-31T14:55:04.169Z,-0.44
2023-01-31T15:00:20.944Z,-0.47
2023-01-31T15:05:41.105Z,-0.44
2023-01-31T15:10:58.660Z,-0.44
2023-01-31T15:16:02.109Z,-0.54
2023-01-31T15:21:06.202Z,-0.69
2023-01-31T15:26:09.569Z,-0.47
2023-01-31T15:31:23.860Z,-0.43
2023-01-31T15:36:32.605Z,-0.44
2023-01-31T15:41:40.396Z,-0.43
2023-01-31T15:46:45.417Z,-0.76
2023-01-31T15:52:08.416Z,-0.48
2023-01-31T15:57:16.285Z,-0.49
2023-01-31T16:02:33.716Z,-0.54
2023-01-31T16:07:35.969Z,-0.49
2023-01-31T16:12:42.566Z,-0.46
2023-01-31T16:17:45.181Z,-0.47
2023-01-31T16:22:56.775Z,-0.60
2023-01-31T16:28:11.419Z,-0.41
2023-01-31T16:33:19.066Z,-0.44
2023-01-31T16:38:27.275Z,-0.43
2023-01-31T16:43:31.125Z,-0.54
2023-01-31T16:48:36.181Z,-0.65
2023-01-31T16:53:40.302Z,-0.65
2023-01-31T16:58:56.601Z,-0.47
2023-01-31T17:04:13.448Z,-0.49
2023-01-31T17:09:20.240Z,-1.07
2023-01-31T17:19:41.583Z,-0.86
2023-01-31T17:24:45.084Z,-0.72
2023-01-31T17:29:47.664Z,-0.56
2023-01-31T17:34:49.912Z,-0.43
2023-01-31T17:39:52.685Z,-0.55
2023-01-31T17:44:56.247Z,-0.41
2023-01-31T17:50:00.445Z,-0.54
2023-01-31T17:55:06.441Z,-0.89
2023-01-31T18:00:12.961Z,-0.83
2023-01-31T18:05:20.490Z,-1.21
2023-01-31T18:10:27.929Z,-0.75
2023-01-31T18:15:31.406Z,-1.44
2023-01-31T18:20:33.740Z,-0.52
2023-01-31T18:25:39.894Z,-2.29
2023-01-31T18:30:42.329Z,-1.45
2023-01-31T18:35:45.089Z,-0.39
2023-01-31T18:40:47.526Z,-4.00
2023-01-31T18:45:52.591Z,-3.88
2023-01-31T18:50:55.799Z,-1.99
2023-01-31T18:56:05.554Z,-1.21
2023-01-31T19:01:13.886Z,-3.03
2023-01-31T19:06:18.606Z,-1.68
2023-01-31T19:11:23.257Z,-1.20
2023-01-31T19:16:29.488Z,-1.27
2023-01-31T19:21:33.655Z,-0.66
2023-01-31T19:26:36.442Z,-0.98
2023-01-31T19:31:38.907Z,-3.03
2023-01-31T19:36:44.885Z,-1.45
2023-01-31T19:41:47.264Z,-0.36
2023-01-31T19:46:52.395Z,-3.69
2023-01-31T19:51:54.720Z,-1.51
2023-01-31T19:56:57.099Z,-0.74
2023-01-31T20:01:59.416Z,-1.50
2023-01-31T20:07:01.776Z,-0.80
2023-01-31T20:12:04.447Z,-2.47
2023-01-31T20:17:08.533Z,-2.75
2023-01-31T20:22:10.759Z,-0.51
2023-01-31T20:27:13.031Z,-0.97
2023-01-31T20:32:17.553Z,-0.51
2023-01-31T20:37:19.782Z,-1.29
2023-01-31T20:42:22.096Z,-1.36
2023-01-31T20:47:24.458Z,-2.34
2023-01-31T20:52:26.772Z,-3.46
2023-01-31T20:57:28.996Z,-0.68
2023-01-31T21:02:31.294Z,-0.50
2023-01-31T21:07:33.517Z,-0.36
2023-01-31T21:12:35.860Z,-0.76
2023-01-31T21:17:40.578Z,-4.12
2023-01-31T21:22:42.989Z,-0.77
2023-01-31T21:27:45.271Z,-1.79
2023-01-31T21:32:47.553Z,-0.89
2023-01-31T21:37:50.130Z,-0.90
2023-01-31T21:42:53.567Z,-1.34
2023-01-31T21:48:15.592Z,-0.52
2023-01-31T21:53:18.112Z,-0.72
2023-01-31T21:58:21.083Z,-0.39
2023-01-31T22:03:23.396Z,-1.05
2023-01-31T22:08:25.632Z,-1.60
2023-01-31T22:13:27.884Z,-0.55
2023-01-31T22:18:30.299Z,-1.99
2023-01-31T22:23:33.429Z,-1.69
2023-01-31T22:28:36.038Z,-1.43
2023-01-31T22:33:40.120Z,-1.09
2023-01-31T22:38:42.768Z,-0.92
2023-01-31T22:43:48.526Z,-0.90
2023-01-31T22:48:51.283Z,-1.76
2023-01-31T22:53:55.073Z,-2.06
2023-01-31T22:59:00.723Z,-0.51
2023-01-31T23:04:05.559Z,-1.42
2023-01-31T23:09:07.836Z,-0.95
2023-01-31T23:14:10.089Z,-1.21
2023-01-31T23:19:13.202Z,-0.86
2023-01-31T23:24:15.527Z,-0.54
2023-01-31T23:29:17.799Z,-1.56
2023-01-31T23:34:20.079Z,-0.85
2023-01-31T23:39:22.303Z,-0.51
2023-01-31T23:44:24.576Z,-0.51
2023-01-31T23:49:26.845Z,-0.51
2023-01-31T23:54:29.123Z,-1.44
2023-01-31T23:59:31.665Z,-1.25
